sensor_id;sensor_type;location;lat;lon;timestamp;temperature;humidity
22008;DHT22;11168;56.976;24.168;2023-03-14T00:03:39;6.70;99.90
22008;DHT22;11168;56.976;24.168;2023-03-14T00:06:07;6.20;99.90
22008;DHT22;11168;56.976;24.168;2023-03-14T00:08:34;6.90;99.90
22008;DHT22;11168;56.976;24.168;2023-03-14T00:11:09;6.70;99.90
22008;DHT22;11168;56.976;24.168;2023-03-14T00:13:36;6.80;99.90
22008;DHT22;11168;56.976;24.168;2023-03-14T00:16:09;6.30;99.90
22008;DHT22;11168;56.976;24.168;2023-03-14T00:18:37;6.30;99.90
22008;DHT22;11168;56.976;24.168;2023-03-14T00:21:05;6.20;99.90
22008;DHT22;11168;56.976;24.168;2023-03-14T00:23:34;6.60;99.90
22008;DHT22;11168;56.976;24.168;2023-03-14T00:26:07;6.40;99.90
22008;DHT22;11168;56.976;24.168;2023-03-14T00:28:34;6.20;99.90
22008;DHT22;11168;56.976;24.168;2023-03-14T00:31:08;6.30;99.90
22008;DHT22;11168;56.976;24.168;2023-03-14T00:33:36;6.10;99.90
22008;DHT22;11168;56.976;24.168;2023-03-14T00:36:05;6.70;99.90
22008;DHT22;11168;56.976;24.168;2023-03-14T00:38:33;6.60;99.90
22008;DHT22;11168;56.976;24.168;2023-03-14T00:41:06;6.00;99.90
22008;DHT22;11168;56.976;24.168;2023-03-14T00:43:33;6.20;99.90
22008;DHT22;11168;56.976;24.168;2023-03-14T00:46:01;6.40;99.90
22008;DHT22;11168;56.976;24.168;2023-03-14T00:48:28;6.10;99.90
22008;DHT22;11168;56.976;24.168;2023-03-14T00:50:55;6.10;99.90
22008;DHT22;11168;56.976;24.168;2023-03-14T00:53:22;6.20;99.90
22008;DHT22;11168;56.976;24.168;2023-03-14T00:55:49;6.50;99.90
22008;DHT22;11168;56.976;24.168;2023-03-14T00:58:18;6.50;99.90
22008;DHT22;11168;56.976;24.168;2023-03-14T01:00:45;6.40;99.90
22008;DHT22;11168;56.976;24.168;2023-03-14T01:03:14;6.60;99.90
22008;DHT22;11168;56.976;24.168;2023-03-14T01:05:41;7.00;99.90
22008;DHT22;11168;56.976;24.168;2023-03-14T01:08:08;7.10;99.90
22008;DHT22;11168;56.976;24.168;2023-03-14T01:10:39;6.70;99.90
22008;DHT22;11168;56.976;24.168;2023-03-14T01:13:07;7.00;99.90
22008;DHT22;11168;56.976;24.168;2023-03-14T01:15:35;6.90;99.90
22008;DHT22;11168;56.976;24.168;2023-03-14T01:18:03;6.90;99.90
22008;DHT22;11168;56.976;24.168;2023-03-14T01:20:30;7.30;99.90
22008;DHT22;11168;56.976;24.168;2023-03-14T01:22:58;7.10;99.90
22008;DHT22;11168;56.976;24.168;2023-03-14T01:25:24;6.90;99.90
22008;DHT22;11168;56.976;24.168;2023-03-14T01:27:51;6.90;99.90
22008;DHT22;11168;56.976;24.168;2023-03-14T01:30:18;7.30;99.90
22008;DHT22;11168;56.976;24.168;2023-03-14T01:32:45;7.10;99.90
22008;DHT22;11168;56.976;24.168;2023-03-14T01:35:12;7.40;99.90
22008;DHT22;11168;56.976;24.168;2023-03-14T01:37:39;7.60;99.90
22008;DHT22;11168;56.976;24.168;2023-03-14T01:40:09;7.10;99.90
22008;DHT22;11168;56.976;24.168;2023-03-14T01:42:37;7.20;99.90
22008;DHT22;11168;56.976;24.168;2023-03-14T01:45:04;7.50;99.90
22008;DHT22;11168;56.976;24.168;2023-03-14T01:47:31;7.10;99.90
22008;DHT22;11168;56.976;24.168;2023-03-14T01:50:08;7.20;99.90
22008;DHT22;11168;56.976;24.168;2023-03-14T01:52:41;7.50;99.90
22008;DHT22;11168;56.976;24.168;2023-03-14T01:55:23;7.40;99.90
22008;DHT22;11168;56.976;24.168;2023-03-14T01:57:54;7.40;99.90
22008;DHT22;11168;56.976;24.168;2023-03-14T02:00:25;7.30;99.90
22008;DHT22;11168;56.976;24.168;2023-03-14T02:02:58;7.30;99.90
22008;DHT22;11168;56.976;24.168;2023-03-14T02:05:30;7.50;99.90
22008;DHT22;11168;56.976;24.168;2023-03-14T02:08:01;7.40;99.90
22008;DHT22;11168;56.976;24.168;2023-03-14T02:10:31;7.40;99.90
22008;DHT22;11168;56.976;24.168;2023-03-14T02:13:02;7.80;99.90
22008;DHT22;11168;56.976;24.168;2023-03-14T02:15:29;7.70;99.90
22008;DHT22;11168;56.976;24.168;2023-03-14T02:17:57;7.40;99.90
22008;DHT22;11168;56.976;24.168;2023-03-14T02:22:57;7.50;99.90
22008;DHT22;11168;56.976;24.168;2023-03-14T02:28:10;7.70;99.90
22008;DHT22;11168;56.976;24.168;2023-03-14T02:30:38;7.90;99.90
22008;DHT22;11168;56.976;24.168;2023-03-14T02:33:17;8.00;99.90
22008;DHT22;11168;56.976;24.168;2023-03-14T02:36:00;7.70;99.90
22008;DHT22;11168;56.976;24.168;2023-03-14T02:38:33;8.10;99.90
22008;DHT22;11168;56.976;24.168;2023-03-14T02:41:02;8.20;99.90
22008;DHT22;11168;56.976;24.168;2023-03-14T02:43:28;8.10;99.90
22008;DHT22;11168;56.976;24.168;2023-03-14T02:45:55;8.20;99.90
22008;DHT22;11168;56.976;24.168;2023-03-14T02:48:33;8.30;99.90
22008;DHT22;11168;56.976;24.168;2023-03-14T02:51:01;8.30;99.90
22008;DHT22;11168;56.976;24.168;2023-03-14T02:53:31;8.10;99.90
22008;DHT22;11168;56.976;24.168;2023-03-14T02:55:59;8.40;99.90
22008;DHT22;11168;56.976;24.168;2023-03-14T02:58:27;8.20;99.90
22008;DHT22;11168;56.976;24.168;2023-03-14T03:00:54;8.20;99.90
22008;DHT22;11168;56.976;24.168;2023-03-14T03:03:21;8.50;99.90
22008;DHT22;11168;56.976;24.168;2023-03-14T03:05:50;8.30;99.90
22008;DHT22;11168;56.976;24.168;2023-03-14T03:08:18;8.40;99.90
22008;DHT22;11168;56.976;24.168;2023-03-14T03:10:45;8.60;99.90
22008;DHT22;11168;56.976;24.168;2023-03-14T03:13:12;8.90;99.90
22008;DHT22;11168;56.976;24.168;2023-03-14T03:15:39;9.00;99.90
22008;DHT22;11168;56.976;24.168;2023-03-14T03:18:08;8.90;99.90
22008;DHT22;11168;56.976;24.168;2023-03-14T03:20:35;8.80;99.90
22008;DHT22;11168;56.976;24.168;2023-03-14T03:23:02;9.30;99.90
22008;DHT22;11168;56.976;24.168;2023-03-14T03:25:30;9.10;99.90
22008;DHT22;11168;56.976;24.168;2023-03-14T03:27:57;9.40;99.90
22008;DHT22;11168;56.976;24.168;2023-03-14T03:30:24;9.70;99.90
22008;DHT22;11168;56.976;24.168;2023-03-14T03:32:51;9.90;99.90
22008;DHT22;11168;56.976;24.168;2023-03-14T03:35:18;10.00;99.90
22008;DHT22;11168;56.976;24.168;2023-03-14T03:37:45;10.10;99.90
22008;DHT22;11168;56.976;24.168;2023-03-14T03:40:12;10.20;99.90
22008;DHT22;11168;56.976;24.168;2023-03-14T03:42:39;10.30;99.90
22008;DHT22;11168;56.976;24.168;2023-03-14T03:45:06;10.30;99.90
22008;DHT22;11168;56.976;24.168;2023-03-14T03:47:33;10.40;99.90
22008;DHT22;11168;56.976;24.168;2023-03-14T03:50:00;10.80;99.90
22008;DHT22;11168;56.976;24.168;2023-03-14T03:52:27;11.00;99.90
22008;DHT22;11168;56.976;24.168;2023-03-14T03:54:54;11.00;99.90
22008;DHT22;11168;56.976;24.168;2023-03-14T03:57:21;11.10;99.90
22008;DHT22;11168;56.976;24.168;2023-03-14T03:59:48;11.10;99.90
22008;DHT22;11168;56.976;24.168;2023-03-14T04:02:15;11.30;99.90
22008;DHT22;11168;56.976;24.168;2023-03-14T04:04:42;11.50;99.90
22008;DHT22;11168;56.976;24.168;2023-03-14T04:07:09;11.60;99.90
22008;DHT22;11168;56.976;24.168;2023-03-14T04:09:37;11.60;99.90
22008;DHT22;11168;56.976;24.168;2023-03-14T04:12:04;11.60;99.90
22008;DHT22;11168;56.976;24.168;2023-03-14T04:14:32;11.50;99.90
22008;DHT22;11168;56.976;24.168;2023-03-14T04:16:59;11.60;99.90
22008;DHT22;11168;56.976;24.168;2023-03-14T04:19:25;11.50;99.90
22008;DHT22;11168;56.976;24.168;2023-03-14T04:21:52;11.60;99.90
22008;DHT22;11168;56.976;24.168;2023-03-14T04:24:19;11.60;99.90
22008;DHT22;11168;56.976;24.168;2023-03-14T04:26:46;11.60;99.90
22008;DHT22;11168;56.976;24.168;2023-03-14T04:29:13;11.70;99.90
22008;DHT22;11168;56.976;24.168;2023-03-14T04:31:40;11.70;99.90
22008;DHT22;11168;56.976;24.168;2023-03-14T04:34:07;11.90;99.90
22008;DHT22;11168;56.976;24.168;2023-03-14T04:36:34;11.80;99.90
22008;DHT22;11168;56.976;24.168;2023-03-14T04:39:05;11.80;99.90
22008;DHT22;11168;56.976;24.168;2023-03-14T04:41:32;11.90;99.90
22008;DHT22;11168;56.976;24.168;2023-03-14T04:43:58;12.00;99.90
22008;DHT22;11168;56.976;24.168;2023-03-14T04:46:25;11.80;99.90
22008;DHT22;11168;56.976;24.168;2023-03-14T04:48:52;11.90;99.90
22008;DHT22;11168;56.976;24.168;2023-03-14T04:51:19;11.80;99.90
22008;DHT22;11168;56.976;24.168;2023-03-14T04:53:49;11.90;99.90
22008;DHT22;11168;56.976;24.168;2023-03-14T04:56:16;12.10;99.90
22008;DHT22;11168;56.976;24.168;2023-03-14T04:58:43;12.10;99.90
22008;DHT22;11168;56.976;24.168;2023-03-14T05:01:11;12.10;99.90
22008;DHT22;11168;56.976;24.168;2023-03-14T05:03:38;12.20;99.90
22008;DHT22;11168;56.976;24.168;2023-03-14T05:06:05;12.10;99.90
22008;DHT22;11168;56.976;24.168;2023-03-14T05:08:32;12.10;99.90
22008;DHT22;11168;56.976;24.168;2023-03-14T05:10:59;12.10;99.90
22008;DHT22;11168;56.976;24.168;2023-03-14T05:13:26;12.10;99.90
22008;DHT22;11168;56.976;24.168;2023-03-14T05:15:53;12.10;99.90
22008;DHT22;11168;56.976;24.168;2023-03-14T05:18:22;12.30;99.90
22008;DHT22;11168;56.976;24.168;2023-03-14T05:20:50;12.10;99.90
22008;DHT22;11168;56.976;24.168;2023-03-14T05:23:18;12.10;99.90
22008;DHT22;11168;56.976;24.168;2023-03-14T05:25:45;12.10;99.90
22008;DHT22;11168;56.976;24.168;2023-03-14T05:28:12;12.30;99.90
22008;DHT22;11168;56.976;24.168;2023-03-14T05:30:39;12.30;99.90
22008;DHT22;11168;56.976;24.168;2023-03-14T05:33:06;12.20;99.90
22008;DHT22;11168;56.976;24.168;2023-03-14T05:35:33;12.00;99.90
22008;DHT22;11168;56.976;24.168;2023-03-14T05:40:27;12.00;99.90
22008;DHT22;11168;56.976;24.168;2023-03-14T05:42:54;12.20;99.90
22008;DHT22;11168;56.976;24.168;2023-03-14T05:45:21;12.30;99.90
22008;DHT22;11168;56.976;24.168;2023-03-14T05:47:48;12.10;99.90
22008;DHT22;11168;56.976;24.168;2023-03-14T05:50:15;12.20;99.90
22008;DHT22;11168;56.976;24.168;2023-03-14T05:52:42;12.00;99.90
22008;DHT22;11168;56.976;24.168;2023-03-14T05:55:09;12.00;99.90
22008;DHT22;11168;56.976;24.168;2023-03-14T05:57:36;11.90;99.90
22008;DHT22;11168;56.976;24.168;2023-03-14T06:00:04;12.00;99.90
22008;DHT22;11168;56.976;24.168;2023-03-14T06:02:31;12.00;99.90
22008;DHT22;11168;56.976;24.168;2023-03-14T06:04:58;11.90;99.90
22008;DHT22;11168;56.976;24.168;2023-03-14T06:07:25;12.00;99.90
22008;DHT22;11168;56.976;24.168;2023-03-14T06:09:51;11.80;99.90
22008;DHT22;11168;56.976;24.168;2023-03-14T06:12:18;12.00;99.90
22008;DHT22;11168;56.976;24.168;2023-03-14T06:14:45;11.80;99.90
22008;DHT22;11168;56.976;24.168;2023-03-14T06:17:12;11.90;99.90
22008;DHT22;11168;56.976;24.168;2023-03-14T06:19:39;11.90;99.90
22008;DHT22;11168;56.976;24.168;2023-03-14T06:22:06;11.80;99.90
22008;DHT22;11168;56.976;24.168;2023-03-14T06:24:33;11.60;99.90
22008;DHT22;11168;56.976;24.168;2023-03-14T06:27:00;11.70;99.90
22008;DHT22;11168;56.976;24.168;2023-03-14T06:29:30;11.90;99.90
22008;DHT22;11168;56.976;24.168;2023-03-14T06:31:57;11.80;99.90
22008;DHT22;11168;56.976;24.168;2023-03-14T06:34:24;11.70;99.90
22008;DHT22;11168;56.976;24.168;2023-03-14T06:36:51;11.70;99.90
22008;DHT22;11168;56.976;24.168;2023-03-14T06:39:18;11.70;99.90
22008;DHT22;11168;56.976;24.168;2023-03-14T06:41:45;11.80;99.90
22008;DHT22;11168;56.976;24.168;2023-03-14T06:44:12;11.70;99.90
22008;DHT22;11168;56.976;24.168;2023-03-14T06:46:41;11.80;99.90
22008;DHT22;11168;56.976;24.168;2023-03-14T06:49:08;11.60;99.90
22008;DHT22;11168;56.976;24.168;2023-03-14T06:51:35;11.60;99.90
22008;DHT22;11168;56.976;24.168;2023-03-14T06:54:02;11.60;99.90
22008;DHT22;11168;56.976;24.168;2023-03-14T06:56:29;11.60;99.90
22008;DHT22;11168;56.976;24.168;2023-03-14T06:58:56;11.40;99.90
22008;DHT22;11168;56.976;24.168;2023-03-14T07:01:25;11.90;99.90
22008;DHT22;11168;56.976;24.168;2023-03-14T07:03:52;11.80;99.90
22008;DHT22;11168;56.976;24.168;2023-03-14T07:06:19;12.00;99.90
22008;DHT22;11168;56.976;24.168;2023-03-14T07:08:46;11.90;99.90
22008;DHT22;11168;56.976;24.168;2023-03-14T07:11:13;11.90;99.90
22008;DHT22;11168;56.976;24.168;2023-03-14T07:13:40;12.00;99.90
22008;DHT22;11168;56.976;24.168;2023-03-14T07:16:08;12.00;99.90
22008;DHT22;11168;56.976;24.168;2023-03-14T07:18:35;11.90;99.90
22008;DHT22;11168;56.976;24.168;2023-03-14T07:21:03;11.80;99.90
22008;DHT22;11168;56.976;24.168;2023-03-14T07:23:30;11.70;99.90
22008;DHT22;11168;56.976;24.168;2023-03-14T07:25:57;11.60;99.90
22008;DHT22;11168;56.976;24.168;2023-03-14T07:28:24;11.70;99.90
22008;DHT22;11168;56.976;24.168;2023-03-14T07:30:51;11.60;99.90
22008;DHT22;11168;56.976;24.168;2023-03-14T07:33:18;11.60;99.90
22008;DHT22;11168;56.976;24.168;2023-03-14T07:35:47;11.60;99.90
22008;DHT22;11168;56.976;24.168;2023-03-14T07:38:15;11.60;99.90
22008;DHT22;11168;56.976;24.168;2023-03-14T07:40:43;11.50;99.90
22008;DHT22;11168;56.976;24.168;2023-03-14T07:43:10;11.40;99.90
22008;DHT22;11168;56.976;24.168;2023-03-14T07:45:37;11.30;99.90
22008;DHT22;11168;56.976;24.168;2023-03-14T07:48:08;11.30;99.90
22008;DHT22;11168;56.976;24.168;2023-03-14T07:50:36;11.10;99.90
22008;DHT22;11168;56.976;24.168;2023-03-14T07:53:03;11.20;99.90
22008;DHT22;11168;56.976;24.168;2023-03-14T07:55:30;11.00;99.90
22008;DHT22;11168;56.976;24.168;2023-03-14T07:57:57;11.20;99.90
22008;DHT22;11168;56.976;24.168;2023-03-14T08:00:24;11.00;99.90
22008;DHT22;11168;56.976;24.168;2023-03-14T08:02:51;10.90;99.90
22008;DHT22;11168;56.976;24.168;2023-03-14T08:05:18;10.80;99.90
22008;DHT22;11168;56.976;24.168;2023-03-14T08:07:45;11.00;99.90
22008;DHT22;11168;56.976;24.168;2023-03-14T08:10:12;11.00;99.90
22008;DHT22;11168;56.976;24.168;2023-03-14T08:12:42;10.80;99.90
22008;DHT22;11168;56.976;24.168;2023-03-14T08:15:09;10.90;99.90
22008;DHT22;11168;56.976;24.168;2023-03-14T08:17:36;10.80;99.90
22008;DHT22;11168;56.976;24.168;2023-03-14T08:20:04;10.70;99.90
22008;DHT22;11168;56.976;24.168;2023-03-14T08:22:35;10.90;99.90
22008;DHT22;11168;56.976;24.168;2023-03-14T08:25:02;10.80;99.90
22008;DHT22;11168;56.976;24.168;2023-03-14T08:27:29;10.70;99.90
22008;DHT22;11168;56.976;24.168;2023-03-14T08:29:56;10.70;99.90
22008;DHT22;11168;56.976;24.168;2023-03-14T08:32:23;10.60;99.90
22008;DHT22;11168;56.976;24.168;2023-03-14T08:34:50;10.60;99.90
22008;DHT22;11168;56.976;24.168;2023-03-14T08:37:17;10.50;99.90
22008;DHT22;11168;56.976;24.168;2023-03-14T08:39:53;10.50;99.90
22008;DHT22;11168;56.976;24.168;2023-03-14T08:42:20;10.40;99.90
22008;DHT22;11168;56.976;24.168;2023-03-14T08:44:47;10.40;99.90
22008;DHT22;11168;56.976;24.168;2023-03-14T08:47:14;10.30;99.90
22008;DHT22;11168;56.976;24.168;2023-03-14T08:49:41;10.30;99.90
22008;DHT22;11168;56.976;24.168;2023-03-14T08:52:08;10.20;99.90
22008;DHT22;11168;56.976;24.168;2023-03-14T08:54:35;9.90;99.90
22008;DHT22;11168;56.976;24.168;2023-03-14T08:57:02;9.80;99.90
22008;DHT22;11168;56.976;24.168;2023-03-14T08:59:29;9.70;99.90
22008;DHT22;11168;56.976;24.168;2023-03-14T09:01:56;9.70;99.90
22008;DHT22;11168;56.976;24.168;2023-03-14T09:04:23;9.60;99.90
22008;DHT22;11168;56.976;24.168;2023-03-14T09:06:50;9.50;99.90
22008;DHT22;11168;56.976;24.168;2023-03-14T09:09:17;9.10;99.90
22008;DHT22;11168;56.976;24.168;2023-03-14T09:11:44;9.00;99.90
22008;DHT22;11168;56.976;24.168;2023-03-14T09:14:11;9.00;99.90
22008;DHT22;11168;56.976;24.168;2023-03-14T09:16:38;8.90;99.90
22008;DHT22;11168;56.976;24.168;2023-03-14T09:19:05;9.00;99.90
22008;DHT22;11168;56.976;24.168;2023-03-14T09:21:32;9.10;99.90
22008;DHT22;11168;56.976;24.168;2023-03-14T09:23:59;9.10;99.90
22008;DHT22;11168;56.976;24.168;2023-03-14T09:26:26;9.10;99.90
22008;DHT22;11168;56.976;24.168;2023-03-14T09:28:53;9.10;99.90
22008;DHT22;11168;56.976;24.168;2023-03-14T09:31:24;9.00;99.90
22008;DHT22;11168;56.976;24.168;2023-03-14T09:33:51;9.00;99.90
22008;DHT22;11168;56.976;24.168;2023-03-14T09:36:18;9.10;99.90
22008;DHT22;11168;56.976;24.168;2023-03-14T09:38:44;9.10;99.90
22008;DHT22;11168;56.976;24.168;2023-03-14T09:41:55;9.10;99.90
22008;DHT22;11168;56.976;24.168;2023-03-14T09:44:27;9.10;99.90
22008;DHT22;11168;56.976;24.168;2023-03-14T09:46:58;9.00;99.90
22008;DHT22;11168;56.976;24.168;2023-03-14T09:49:32;9.00;99.90
22008;DHT22;11168;56.976;24.168;2023-03-14T09:52:04;8.90;99.90
22008;DHT22;11168;56.976;24.168;2023-03-14T09:54:37;8.90;99.90
22008;DHT22;11168;56.976;24.168;2023-03-14T09:57:08;9.10;99.90
22008;DHT22;11168;56.976;24.168;2023-03-14T09:59:39;9.40;99.90
22008;DHT22;11168;56.976;24.168;2023-03-14T10:04:47;9.60;99.90
22008;DHT22;11168;56.976;24.168;2023-03-14T10:07:17;9.60;99.90
22008;DHT22;11168;56.976;24.168;2023-03-14T10:09:48;9.90;99.90
22008;DHT22;11168;56.976;24.168;2023-03-14T10:12:17;9.60;99.90
22008;DHT22;11168;56.976;24.168;2023-03-14T10:14:50;9.70;99.90
22008;DHT22;11168;56.976;24.168;2023-03-14T10:17:19;9.70;99.90
22008;DHT22;11168;56.976;24.168;2023-03-14T10:19:55;9.70;99.90
22008;DHT22;11168;56.976;24.168;2023-03-14T10:22:30;10.30;99.90
22008;DHT22;11168;56.976;24.168;2023-03-14T10:25:05;10.40;99.90
22008;DHT22;11168;56.976;24.168;2023-03-14T10:27:35;10.80;99.90
22008;DHT22;11168;56.976;24.168;2023-03-14T10:30:07;10.90;99.90
22008;DHT22;11168;56.976;24.168;2023-03-14T10:32:53;11.20;99.90
22008;DHT22;11168;56.976;24.168;2023-03-14T10:35:22;11.00;99.90
22008;DHT22;11168;56.976;24.168;2023-03-14T10:40:20;10.60;99.90
22008;DHT22;11168;56.976;24.168;2023-03-14T10:42:50;10.90;99.90
22008;DHT22;11168;56.976;24.168;2023-03-14T10:45:38;11.40;99.90
22008;DHT22;11168;56.976;24.168;2023-03-14T10:53:24;11.80;99.90
22008;DHT22;11168;56.976;24.168;2023-03-14T10:55:56;11.50;99.90
22008;DHT22;11168;56.976;24.168;2023-03-14T10:58:26;11.20;99.90
22008;DHT22;11168;56.976;24.168;2023-03-14T11:01:07;10.80;99.90
22008;DHT22;11168;56.976;24.168;2023-03-14T11:03:38;10.60;99.90
22008;DHT22;11168;56.976;24.168;2023-03-14T11:06:18;11.00;99.90
22008;DHT22;11168;56.976;24.168;2023-03-14T11:09:33;11.80;99.90
22008;DHT22;11168;56.976;24.168;2023-03-14T11:14:55;12.50;99.90
22008;DHT22;11168;56.976;24.168;2023-03-14T11:17:30;12.20;99.90
22008;DHT22;11168;56.976;24.168;2023-03-14T11:23:30;11.40;99.90
22008;DHT22;11168;56.976;24.168;2023-03-14T11:31:47;11.80;99.90
22008;DHT22;11168;56.976;24.168;2023-03-14T11:34:28;12.00;99.90
22008;DHT22;11168;56.976;24.168;2023-03-14T11:37:14;11.80;99.90
22008;DHT22;11168;56.976;24.168;2023-03-14T11:39:47;11.50;99.90
22008;DHT22;11168;56.976;24.168;2023-03-14T11:42:18;11.20;99.90
22008;DHT22;11168;56.976;24.168;2023-03-14T11:44:48;10.80;99.90
22008;DHT22;11168;56.976;24.168;2023-03-14T11:47:21;10.80;99.90
22008;DHT22;11168;56.976;24.168;2023-03-14T11:50:23;11.00;99.90
22008;DHT22;11168;56.976;24.168;2023-03-14T11:53:08;11.00;99.90
22008;DHT22;11168;56.976;24.168;2023-03-14T11:55:42;11.00;99.90
22008;DHT22;11168;56.976;24.168;2023-03-14T11:58:14;10.70;99.90
22008;DHT22;11168;56.976;24.168;2023-03-14T12:00:43;10.60;99.90
22008;DHT22;11168;56.976;24.168;2023-03-14T12:09:03;10.10;99.90
22008;DHT22;11168;56.976;24.168;2023-03-14T12:13:59;10.00;99.90
22008;DHT22;11168;56.976;24.168;2023-03-14T12:16:32;10.00;99.90
22008;DHT22;11168;56.976;24.168;2023-03-14T12:22:13;10.10;99.90
22008;DHT22;11168;56.976;24.168;2023-03-14T12:24:37;10.20;99.90
22008;DHT22;11168;56.976;24.168;2023-03-14T12:27:05;10.20;99.90
22008;DHT22;11168;56.976;24.168;2023-03-14T12:29:59;10.20;99.90
22008;DHT22;11168;56.976;24.168;2023-03-14T12:32:30;10.10;99.90
22008;DHT22;11168;56.976;24.168;2023-03-14T12:35:32;10.00;99.90
22008;DHT22;11168;56.976;24.168;2023-03-14T12:37:55;10.00;99.90
22008;DHT22;11168;56.976;24.168;2023-03-14T12:40:34;10.00;99.90
22008;DHT22;11168;56.976;24.168;2023-03-14T12:43:04;10.00;99.90
22008;DHT22;11168;56.976;24.168;2023-03-14T12:48:40;9.80;99.90
22008;DHT22;11168;56.976;24.168;2023-03-14T12:51:18;9.80;99.90
22008;DHT22;11168;56.976;24.168;2023-03-14T12:56:51;9.80;99.90
22008;DHT22;11168;56.976;24.168;2023-03-14T12:59:35;9.90;99.90
22008;DHT22;11168;56.976;24.168;2023-03-14T13:04:42;10.10;99.90
22008;DHT22;11168;56.976;24.168;2023-03-14T13:13:16;9.60;99.90
22008;DHT22;11168;56.976;24.168;2023-03-14T13:15:21;9.50;99.90
22008;DHT22;11168;56.976;24.168;2023-03-14T13:17:51;9.30;99.90
22008;DHT22;11168;56.976;24.168;2023-03-14T13:20:35;9.30;99.90
22008;DHT22;11168;56.976;24.168;2023-03-14T13:23:03;9.30;99.90
22008;DHT22;11168;56.976;24.168;2023-03-14T13:25:33;9.20;99.90
22008;DHT22;11168;56.976;24.168;2023-03-14T13:28:01;9.10;99.90
22008;DHT22;11168;56.976;24.168;2023-03-14T13:30:40;9.00;99.90
22008;DHT22;11168;56.976;24.168;2023-03-14T13:33:14;9.00;99.90
22008;DHT22;11168;56.976;24.168;2023-03-14T13:35:54;8.80;99.90
22008;DHT22;11168;56.976;24.168;2023-03-14T13:38:26;8.80;99.90
22008;DHT22;11168;56.976;24.168;2023-03-14T13:40:55;8.70;99.90
22008;DHT22;11168;56.976;24.168;2023-03-14T13:43:30;8.70;99.90
22008;DHT22;11168;56.976;24.168;2023-03-14T13:46:22;8.70;99.90
22008;DHT22;11168;56.976;24.168;2023-03-14T13:48:53;8.60;99.90
22008;DHT22;11168;56.976;24.168;2023-03-14T13:51:22;8.60;99.90
22008;DHT22;11168;56.976;24.168;2023-03-14T13:53:54;8.50;99.90
22008;DHT22;11168;56.976;24.168;2023-03-14T13:56:23;8.50;99.90
22008;DHT22;11168;56.976;24.168;2023-03-14T13:58:50;8.50;99.90
22008;DHT22;11168;56.976;24.168;2023-03-14T14:01:29;8.50;99.90
22008;DHT22;11168;56.976;24.168;2023-03-14T14:04:02;8.50;99.90
22008;DHT22;11168;56.976;24.168;2023-03-14T14:06:35;8.40;99.90
22008;DHT22;11168;56.976;24.168;2023-03-14T14:09:16;8.40;99.90
22008;DHT22;11168;56.976;24.168;2023-03-14T14:15:15;8.30;99.90
22008;DHT22;11168;56.976;24.168;2023-03-14T14:17:51;8.20;99.90
22008;DHT22;11168;56.976;24.168;2023-03-14T14:20:34;8.20;99.90
22008;DHT22;11168;56.976;24.168;2023-03-14T14:23:04;8.20;99.90
22008;DHT22;11168;56.976;24.168;2023-03-14T14:25:32;8.10;99.90
22008;DHT22;11168;56.976;24.168;2023-03-14T14:28:33;8.10;99.90
22008;DHT22;11168;56.976;24.168;2023-03-14T14:31:00;8.00;99.90
22008;DHT22;11168;56.976;24.168;2023-03-14T14:33:28;7.90;99.90
22008;DHT22;11168;56.976;24.168;2023-03-14T14:35:58;7.90;99.90
22008;DHT22;11168;56.976;24.168;2023-03-14T14:38:26;7.90;99.90
22008;DHT22;11168;56.976;24.168;2023-03-14T14:40:59;7.90;99.90
22008;DHT22;11168;56.976;24.168;2023-03-14T14:43:36;7.80;99.90
22008;DHT22;11168;56.976;24.168;2023-03-14T14:46:07;7.80;99.90
22008;DHT22;11168;56.976;24.168;2023-03-14T14:48:37;7.70;99.90
22008;DHT22;11168;56.976;24.168;2023-03-14T14:51:06;7.70;99.90
22008;DHT22;11168;56.976;24.168;2023-03-14T14:53:44;7.50;99.90
22008;DHT22;11168;56.976;24.168;2023-03-14T14:56:17;7.50;99.90
22008;DHT22;11168;56.976;24.168;2023-03-14T14:58:47;7.50;99.90
22008;DHT22;11168;56.976;24.168;2023-03-14T15:01:18;7.40;99.90
22008;DHT22;11168;56.976;24.168;2023-03-14T15:03:49;7.40;99.90
22008;DHT22;11168;56.976;24.168;2023-03-14T15:06:18;7.30;99.90
22008;DHT22;11168;56.976;24.168;2023-03-14T15:08:48;7.40;99.90
22008;DHT22;11168;56.976;24.168;2023-03-14T15:11:23;7.40;99.90
22008;DHT22;11168;56.976;24.168;2023-03-14T15:13:51;7.40;99.90
22008;DHT22;11168;56.976;24.168;2023-03-14T15:16:22;7.30;99.90
22008;DHT22;11168;56.976;24.168;2023-03-14T15:18:58;7.30;99.90
22008;DHT22;11168;56.976;24.168;2023-03-14T15:21:27;7.30;99.90
22008;DHT22;11168;56.976;24.168;2023-03-14T15:23:54;7.30;99.90
22008;DHT22;11168;56.976;24.168;2023-03-14T15:26:24;7.30;99.90
22008;DHT22;11168;56.976;24.168;2023-03-14T15:28:51;7.20;99.90
22008;DHT22;11168;56.976;24.168;2023-03-14T15:31:19;7.30;99.90
22008;DHT22;11168;56.976;24.168;2023-03-14T15:33:48;7.20;99.90
22008;DHT22;11168;56.976;24.168;2023-03-14T15:36:28;7.20;99.90
22008;DHT22;11168;56.976;24.168;2023-03-14T15:38:55;7.20;99.90
22008;DHT22;11168;56.976;24.168;2023-03-14T15:41:23;7.20;99.90
22008;DHT22;11168;56.976;24.168;2023-03-14T15:43:50;7.20;99.90
22008;DHT22;11168;56.976;24.168;2023-03-14T15:46:18;7.20;99.90
22008;DHT22;11168;56.976;24.168;2023-03-14T15:48:45;7.20;99.90
22008;DHT22;11168;56.976;24.168;2023-03-14T15:51:12;7.20;99.90
22008;DHT22;11168;56.976;24.168;2023-03-14T15:53:40;7.20;99.90
22008;DHT22;11168;56.976;24.168;2023-03-14T15:56:11;7.20;99.90
22008;DHT22;11168;56.976;24.168;2023-03-14T15:58:39;7.10;99.90
22008;DHT22;11168;56.976;24.168;2023-03-14T16:01:07;7.10;99.90
22008;DHT22;11168;56.976;24.168;2023-03-14T16:03:37;7.10;99.90
22008;DHT22;11168;56.976;24.168;2023-03-14T16:06:05;7.10;99.90
22008;DHT22;11168;56.976;24.168;2023-03-14T16:08:32;7.00;99.90
22008;DHT22;11168;56.976;24.168;2023-03-14T16:10:59;7.00;99.90
22008;DHT22;11168;56.976;24.168;2023-03-14T16:13:26;7.00;99.90
22008;DHT22;11168;56.976;24.168;2023-03-14T16:15:56;7.00;99.90
22008;DHT22;11168;56.976;24.168;2023-03-14T16:18:23;7.00;99.90
22008;DHT22;11168;56.976;24.168;2023-03-14T16:20:55;7.00;99.90
22008;DHT22;11168;56.976;24.168;2023-03-14T16:23:23;7.00;99.90
22008;DHT22;11168;56.976;24.168;2023-03-14T16:25:51;7.10;99.90
22008;DHT22;11168;56.976;24.168;2023-03-14T16:28:18;7.00;99.90
22008;DHT22;11168;56.976;24.168;2023-03-14T16:30:45;7.00;99.90
22008;DHT22;11168;56.976;24.168;2023-03-14T16:33:16;7.10;99.90
22008;DHT22;11168;56.976;24.168;2023-03-14T16:35:57;7.00;99.90
22008;DHT22;11168;56.976;24.168;2023-03-14T16:38:28;7.10;99.90
22008;DHT22;11168;56.976;24.168;2023-03-14T16:41:11;7.10;99.90
22008;DHT22;11168;56.976;24.168;2023-03-14T16:43:39;7.10;99.90